Time;durP1;ratioP1;P1;durP2;ratioP2;P2;SDS_P1;SDS_P2;PMS_P1;PMS_P2;Temp;Humidity;BMP_temperature;BMP_pressure;BME280_temperature;BME280_humidity;BME280_pressure;Samples;Min_cycle;Max_cycle;Signal;HPM_P1;HPM_P2
2022/01/05 00:00:27;;;;;;;13.43;3.30;;;;;;;;;;5111579;28;20268;-76
2022/01/05 00:02:54;;;;;;;8.80;2.33;;;;;;;;;;5111834;28;20283;-76
2022/01/05 00:05:22;;;;;;;10.13;2.30;;;;;;;;;;5122059;27;20200;-77
2022/01/05 00:07:49;;;;;;;9.70;2.00;;;;;;;;;;5121726;27;20282;-76
2022/01/05 00:10:16;;;;;;;7.53;1.90;;;;;;;;;;5128501;27;20584;-76
2022/01/05 00:12:43;;;;;;;8.80;1.90;;;;;;;;;;5113493;27;20714;-76
2022/01/05 00:15:11;;;;;;;7.37;1.70;;;;;;;;;;5117364;27;20230;-76
2022/01/05 00:17:40;;;;;;;8.73;2.40;;;;;;;;;;5131749;27;20291;-76
2022/01/05 00:20:08;;;;;;;8.57;1.87;;;;;;;;;;5131815;27;20293;-76
2022/01/05 00:22:35;;;;;;;6.50;2.20;;;;;;;;;;5116956;27;20283;-76
2022/01/05 00:25:02;;;;;;;8.47;2.30;;;;;;;;;;5112113;28;20205;-76
2022/01/05 00:27:29;;;;;;;11.23;2.40;;;;;;;;;;5111726;28;20385;-76
2022/01/05 00:29:58;;;;;;;5.27;1.87;;;;;;;;;;5113552;28;20230;-76
2022/01/05 00:32:25;;;;;;;7.77;2.10;;;;;;;;;;5132308;27;20221;-76
2022/01/05 00:34:54;;;;;;;12.00;2.60;;;;;;;;;;5130865;27;20232;-76
2022/01/05 00:37:21;;;;;;;10.97;3.17;;;;;;;;;;5123248;27;20241;-76
2022/01/05 00:39:48;;;;;;;10.90;2.90;;;;;;;;;;5110711;28;20290;-76
2022/01/05 00:42:15;;;;;;;8.60;2.50;;;;;;;;;;5111311;28;20282;-76
2022/01/05 00:44:42;;;;;;;6.20;2.00;;;;;;;;;;5109584;28;20289;-76
2022/01/05 00:47:10;;;;;;;4.77;1.90;;;;;;;;;;5111104;28;20230;-76
2022/01/05 00:49:37;;;;;;;10.40;3.97;;;;;;;;;;5111037;28;20204;-76
2022/01/05 00:52:06;;;;;;;15.23;5.67;;;;;;;;;;5120861;28;20790;-76
2022/01/05 00:54:33;;;;;;;15.70;5.30;;;;;;;;;;5117477;28;20624;-76
2022/01/05 00:57:01;;;;;;;11.03;5.07;;;;;;;;;;5121075;27;20239;-76
2022/01/05 00:59:28;;;;;;;11.53;5.10;;;;;;;;;;5112045;28;20233;-76
2022/01/05 01:01:55;;;;;;;10.47;4.93;;;;;;;;;;5122951;27;20217;-76
2022/01/05 01:04:22;;;;;;;11.43;4.10;;;;;;;;;;5116683;27;20226;-76
2022/01/05 01:06:50;;;;;;;11.27;2.90;;;;;;;;;;5116107;27;20209;-76
2022/01/05 01:09:18;;;;;;;9.87;2.43;;;;;;;;;;5116598;27;20563;-76
2022/01/05 01:11:45;;;;;;;9.17;1.93;;;;;;;;;;5120365;27;20305;-76
2022/01/05 01:14:13;;;;;;;6.30;1.57;;;;;;;;;;5115700;28;20289;-76
2022/01/05 01:16:40;;;;;;;8.47;1.47;;;;;;;;;;5124664;27;20288;-76
2022/01/05 01:19:07;;;;;;;8.50;1.43;;;;;;;;;;5115172;27;20681;-76
2022/01/05 01:21:34;;;;;;;4.27;1.23;;;;;;;;;;5124931;27;20694;-76
2022/01/05 01:24:02;;;;;;;5.53;1.17;;;;;;;;;;5117384;27;20297;-76
2022/01/05 01:26:32;;;;;;;6.03;1.00;;;;;;;;;;5135665;27;20289;-76
2022/01/05 01:29:00;;;;;;;5.33;1.10;;;;;;;;;;5134538;27;20546;-76
2022/01/05 01:31:28;;;;;;;5.90;1.30;;;;;;;;;;5135149;27;20311;-76
2022/01/05 01:33:55;;;;;;;6.07;1.50;;;;;;;;;;5135579;27;20200;-76
2022/01/05 01:36:23;;;;;;;7.63;1.40;;;;;;;;;;5131428;27;20336;-76
2022/01/05 01:38:50;;;;;;;3.47;1.20;;;;;;;;;;5115831;27;20280;-76
2022/01/05 01:41:17;;;;;;;7.27;1.23;;;;;;;;;;5131132;27;20221;-76
2022/01/05 01:43:46;;;;;;;9.00;1.57;;;;;;;;;;5131762;27;20197;-76
2022/01/05 01:46:13;;;;;;;6.17;1.40;;;;;;;;;;5114893;27;20356;-76
2022/01/05 01:48:41;;;;;;;6.40;1.60;;;;;;;;;;5114096;28;20194;-76
2022/01/05 01:51:09;;;;;;;6.63;1.23;;;;;;;;;;5114588;28;20198;-76
2022/01/05 01:53:36;;;;;;;8.43;1.47;;;;;;;;;;5114817;27;20284;-76
2022/01/05 01:56:04;;;;;;;7.33;1.60;;;;;;;;;;5114601;28;20272;-76
2022/01/05 01:58:34;;;;;;;6.47;1.37;;;;;;;;;;5114375;28;20287;-76
2022/01/05 02:01:02;;;;;;;6.90;1.17;;;;;;;;;;5113888;28;20320;-76
2022/01/05 02:03:29;;;;;;;4.30;1.10;;;;;;;;;;5113951;28;20299;-76
2022/01/05 02:05:57;;;;;;;5.37;1.30;;;;;;;;;;5130727;27;20291;-76
2022/01/05 02:08:24;;;;;;;3.73;1.03;;;;;;;;;;5134485;27;20337;-76
2022/01/05 02:10:52;;;;;;;4.57;1.20;;;;;;;;;;5121676;27;20288;-76
2022/01/05 02:13:19;;;;;;;5.30;1.40;;;;;;;;;;5127490;27;20256;-76
2022/01/05 02:15:47;;;;;;;5.40;1.40;;;;;;;;;;5133878;27;20292;-76
2022/01/05 02:18:58;;;;;;;6.57;1.47;;;;;;;;;;5134576;27;20289;-76
2022/01/05 02:21:12;;;;;;;7.87;2.17;;;;;;;;;;5115192;27;20206;-76
2022/01/05 02:23:39;;;;;;;7.03;1.93;;;;;;;;;;5115306;27;20293;-76
2022/01/05 02:26:07;;;;;;;9.37;2.70;;;;;;;;;;5133406;27;20280;-76
2022/01/05 02:28:35;;;;;;;15.37;2.83;;;;;;;;;;5131913;27;20289;-76
2022/01/05 02:31:04;;;;;;;10.40;2.77;;;;;;;;;;5114203;27;20285;-76
2022/01/05 02:33:31;;;;;;;10.83;2.80;;;;;;;;;;5113592;27;20232;-76
2022/01/05 02:35:58;;;;;;;14.90;3.40;;;;;;;;;;5113817;27;20225;-76
2022/01/05 02:38:27;;;;;;;10.20;3.03;;;;;;;;;;5113658;28;20244;-76
2022/01/05 02:40:54;;;;;;;12.67;2.97;;;;;;;;;;5113228;28;20285;-76
2022/01/05 02:43:22;;;;;;;13.47;3.50;;;;;;;;;;5125088;27;20221;-76
2022/01/05 02:45:49;;;;;;;9.93;3.67;;;;;;;;;;5113463;27;20284;-76
2022/01/05 02:48:16;;;;;;;10.90;4.07;;;;;;;;;;5113281;28;20233;-76
2022/01/05 02:50:43;;;;;;;11.60;4.33;;;;;;;;;;5115900;27;20284;-76
2022/01/05 02:53:11;;;;;;;10.47;4.27;;;;;;;;;;5118920;27;20221;-76
2022/01/05 02:55:39;;;;;;;9.50;3.53;;;;;;;;;;5116631;27;20323;-76
2022/01/05 02:58:06;;;;;;;11.93;3.47;;;;;;;;;;5125410;27;20285;-76
2022/01/05 03:00:34;;;;;;;8.67;3.30;;;;;;;;;;5122522;27;20226;-76
2022/01/05 03:03:01;;;;;;;9.27;2.77;;;;;;;;;;5112839;28;20238;-76
2022/01/05 03:05:28;;;;;;;9.83;2.97;;;;;;;;;;5113087;28;20288;-76
2022/01/05 03:07:55;;;;;;;12.63;3.73;;;;;;;;;;5112158;27;20205;-76
2022/01/05 03:10:22;;;;;;;8.67;3.53;;;;;;;;;;5119276;27;20280;-76
2022/01/05 03:12:51;;;;;;;10.60;2.97;;;;;;;;;;5117520;27;20252;-76
2022/01/05 03:15:19;;;;;;;9.40;3.00;;;;;;;;;;5132866;27;20283;-76
2022/01/05 03:17:46;;;;;;;11.70;3.40;;;;;;;;;;5133252;27;20263;-77
2022/01/05 03:20:14;;;;;;;9.63;3.53;;;;;;;;;;5133104;27;20197;-76
2022/01/05 03:22:42;;;;;;;10.37;3.47;;;;;;;;;;5122266;27;20241;-76
2022/01/05 03:25:15;;;;;;;11.10;3.90;;;;;;;;;;5120631;27;20280;-76
2022/01/05 03:27:43;;;;;;;11.47;3.33;;;;;;;;;;5112468;28;20206;-76
2022/01/05 03:30:12;;;;;;;9.27;2.80;;;;;;;;;;5112212;28;20229;-76
2022/01/05 03:32:52;;;;;;;10.67;2.77;;;;;;;;;;5117547;27;20308;-76
2022/01/05 03:35:20;;;;;;;10.77;2.80;;;;;;;;;;5112474;28;20277;-76
2022/01/05 03:37:47;;;;;;;10.03;3.27;;;;;;;;;;5112481;28;20197;-76
2022/01/05 03:40:14;;;;;;;12.40;2.93;;;;;;;;;;5119158;27;20221;-76
2022/01/05 03:42:41;;;;;;;10.90;3.13;;;;;;;;;;5124659;27;20684;-76
2022/01/05 03:45:09;;;;;;;12.43;3.30;;;;;;;;;;5123556;27;20225;-76
2022/01/05 03:47:38;;;;;;;15.07;3.70;;;;;;;;;;5127159;27;20201;-76
2022/01/05 03:50:06;;;;;;;9.17;3.27;;;;;;;;;;5112198;28;20225;-76
2022/01/05 03:52:33;;;;;;;9.77;3.27;;;;;;;;;;5131199;27;20310;-76
2022/01/05 03:55:01;;;;;;;12.63;3.47;;;;;;;;;;5132143;27;20333;-76
2022/01/05 03:57:28;;;;;;;7.90;3.20;;;;;;;;;;5132121;27;20795;-76
2022/01/05 03:59:56;;;;;;;11.27;3.07;;;;;;;;;;5132803;27;20264;-76
2022/01/05 04:02:23;;;;;;;8.67;2.90;;;;;;;;;;5124631;27;20239;-76
2022/01/05 04:04:51;;;;;;;14.27;3.80;;;;;;;;;;5132492;27;20214;-76
2022/01/05 04:07:19;;;;;;;11.93;3.60;;;;;;;;;;5131480;27;20280;-76
2022/01/05 04:09:47;;;;;;;13.87;4.20;;;;;;;;;;5131852;27;20228;-76
2022/01/05 04:12:14;;;;;;;11.63;4.60;;;;;;;;;;5129701;27;20240;-76
2022/01/05 04:14:42;;;;;;;14.73;4.93;;;;;;;;;;5132655;27;20287;-76
2022/01/05 04:17:09;;;;;;;15.80;5.43;;;;;;;;;;5132329;27;20667;-76
2022/01/05 04:19:36;;;;;;;13.00;5.23;;;;;;;;;;5132270;27;20240;-76
2022/01/05 04:22:05;;;;;;;18.57;6.40;;;;;;;;;;5119136;27;20235;-75
2022/01/05 04:24:32;;;;;;;19.40;6.27;;;;;;;;;;5131378;27;20305;-76
2022/01/05 04:27:00;;;;;;;14.07;6.40;;;;;;;;;;5131458;27;20284;-76
2022/01/05 04:29:27;;;;;;;18.90;7.67;;;;;;;;;;5127648;28;20690;-76
2022/01/05 04:31:54;;;;;;;13.10;4.37;;;;;;;;;;5131834;27;20276;-76
2022/01/05 04:34:22;;;;;;;13.80;3.83;;;;;;;;;;5134164;27;20299;-76
2022/01/05 04:36:49;;;;;;;10.40;4.23;;;;;;;;;;5118298;27;20237;-76
2022/01/05 04:39:18;;;;;;;11.17;4.20;;;;;;;;;;5119087;27;20201;-76
2022/01/05 04:41:45;;;;;;;16.77;4.53;;;;;;;;;;5126838;27;20288;-76
2022/01/05 04:44:12;;;;;;;15.10;5.43;;;;;;;;;;5123572;27;20284;-76
2022/01/05 04:46:39;;;;;;;17.33;4.40;;;;;;;;;;5115415;28;20750;-76
2022/01/05 04:49:06;;;;;;;10.00;3.67;;;;;;;;;;5116227;27;20293;-76
2022/01/05 04:51:34;;;;;;;13.90;3.30;;;;;;;;;;5136236;27;20287;-76
2022/01/05 04:54:01;;;;;;;13.37;3.37;;;;;;;;;;5136353;27;20310;-76
2022/01/05 04:56:30;;;;;;;13.37;4.30;;;;;;;;;;5135212;27;20247;-76
2022/01/05 04:58:57;;;;;;;15.80;3.80;;;;;;;;;;5135380;27;20218;-76
2022/01/05 05:01:24;;;;;;;14.47;4.10;;;;;;;;;;5135523;27;20231;-76
2022/01/05 05:03:52;;;;;;;14.77;3.17;;;;;;;;;;5122206;27;20285;-76
2022/01/05 05:06:19;;;;;;;12.27;3.40;;;;;;;;;;5117671;27;20280;-76
2022/01/05 05:08:46;;;;;;;15.83;4.17;;;;;;;;;;5131318;27;20293;-76
2022/01/05 05:11:14;;;;;;;10.47;4.23;;;;;;;;;;5121297;27;20243;-76
2022/01/05 05:13:42;;;;;;;17.30;4.50;;;;;;;;;;5123141;27;20264;-76
2022/01/05 05:16:09;;;;;;;11.63;4.13;;;;;;;;;;5114249;28;20232;-76
2022/01/05 05:18:37;;;;;;;13.13;4.47;;;;;;;;;;5114352;28;20283;-76
2022/01/05 05:21:05;;;;;;;13.43;4.43;;;;;;;;;;5114594;28;20744;-76
2022/01/05 05:23:32;;;;;;;13.83;4.60;;;;;;;;;;5114735;28;20295;-76
2022/01/05 05:25:59;;;;;;;16.23;4.20;;;;;;;;;;5114238;28;20198;-76
2022/01/05 05:28:26;;;;;;;12.13;3.67;;;;;;;;;;5114294;28;20284;-76
2022/01/05 05:30:55;;;;;;;10.33;3.03;;;;;;;;;;5114351;28;20280;-76
2022/01/05 05:33:22;;;;;;;10.97;3.30;;;;;;;;;;5114805;28;20311;-76
2022/01/05 05:35:49;;;;;;;11.73;3.03;;;;;;;;;;5115112;28;20228;-76
2022/01/05 05:38:16;;;;;;;11.17;3.50;;;;;;;;;;5114569;28;20648;-76
2022/01/05 05:40:44;;;;;;;12.67;3.33;;;;;;;;;;5114140;28;20251;-76
2022/01/05 05:43:11;;;;;;;14.20;4.17;;;;;;;;;;5124780;27;20280;-76
2022/01/05 05:45:38;;;;;;;14.57;4.57;;;;;;;;;;5125930;27;20203;-76
2022/01/05 05:48:08;;;;;;;12.17;4.50;;;;;;;;;;5123602;27;20196;-76
2022/01/05 05:50:35;;;;;;;13.87;4.00;;;;;;;;;;5122992;27;20303;-76
2022/01/05 05:53:02;;;;;;;13.30;2.77;;;;;;;;;;5122984;27;20243;-76
2022/01/05 05:55:30;;;;;;;9.63;2.40;;;;;;;;;;5120566;27;20236;-76
2022/01/05 05:57:57;;;;;;;13.13;2.57;;;;;;;;;;5120478;27;20288;-76
2022/01/05 06:00:24;;;;;;;10.40;2.30;;;;;;;;;;5125623;27;20271;-76
2022/01/05 06:02:51;;;;;;;12.07;2.70;;;;;;;;;;5119485;27;20277;-76
2022/01/05 06:05:20;;;;;;;10.40;2.60;;;;;;;;;;5121094;27;20235;-76
2022/01/05 06:07:47;;;;;;;9.60;2.40;;;;;;;;;;5128664;27;20236;-77
2022/01/05 06:10:14;;;;;;;13.33;3.10;;;;;;;;;;5123369;27;20648;-76
2022/01/05 06:12:42;;;;;;;11.93;2.90;;;;;;;;;;5124345;27;20300;-76
2022/01/05 06:15:09;;;;;;;16.87;2.67;;;;;;;;;;5130412;27;20287;-76
2022/01/05 06:17:37;;;;;;;8.30;2.80;;;;;;;;;;5130847;27;20279;-77
2022/01/05 06:20:05;;;;;;;8.17;2.83;;;;;;;;;;5117975;27;20279;-77
2022/01/05 06:22:33;;;;;;;11.03;3.17;;;;;;;;;;5123368;27;20200;-75
2022/01/05 06:25:01;;;;;;;7.67;2.80;;;;;;;;;;5121500;27;20330;-76
2022/01/05 06:27:28;;;;;;;15.23;4.17;;;;;;;;;;5127282;27;20240;-75
2022/01/05 06:29:55;;;;;;;13.00;3.90;;;;;;;;;;5125147;27;20232;-76
2022/01/05 06:32:23;;;;;;;14.50;4.27;;;;;;;;;;5122343;27;20284;-76
2022/01/05 06:34:50;;;;;;;15.87;4.40;;;;;;;;;;5126475;27;20267;-76
2022/01/05 06:37:18;;;;;;;12.10;4.13;;;;;;;;;;5119905;27;20304;-76
2022/01/05 06:39:48;;;;;;;12.60;3.87;;;;;;;;;;5121109;27;20212;-76
2022/01/05 06:42:15;;;;;;;9.97;3.00;;;;;;;;;;5125853;27;20212;-76
2022/01/05 06:44:42;;;;;;;12.37;2.47;;;;;;;;;;5118454;27;20279;-75
2022/01/05 06:47:10;;;;;;;8.47;2.60;;;;;;;;;;5120336;27;20304;-76
2022/01/05 06:49:37;;;;;;;10.00;2.10;;;;;;;;;;5128587;27;20200;-76
2022/01/05 06:52:06;;;;;;;9.30;2.43;;;;;;;;;;5122068;27;20287;-76
2022/01/05 06:54:33;;;;;;;9.80;2.10;;;;;;;;;;5137994;27;20307;-76
2022/01/05 06:57:02;;;;;;;10.03;2.73;;;;;;;;;;5124372;27;20225;-76
2022/01/05 06:59:29;;;;;;;7.73;2.30;;;;;;;;;;5120291;27;20569;-75
2022/01/05 07:01:56;;;;;;;14.73;3.20;;;;;;;;;;5118518;27;20662;-76
2022/01/05 07:04:23;;;;;;;11.40;3.30;;;;;;;;;;5132493;27;20216;-75
2022/01/05 07:06:50;;;;;;;9.73;2.70;;;;;;;;;;5119730;27;20284;-76
2022/01/05 07:09:17;;;;;;;9.03;2.83;;;;;;;;;;5137616;27;20292;-76
2022/01/05 07:11:45;;;;;;;15.03;3.10;;;;;;;;;;5123989;27;20224;-76
2022/01/05 07:14:14;;;;;;;11.03;3.10;;;;;;;;;;5113040;27;20228;-75
2022/01/05 07:16:41;;;;;;;8.30;2.67;;;;;;;;;;5127401;27;20204;-76
2022/01/05 07:19:08;;;;;;;7.77;2.13;;;;;;;;;;5116018;27;20292;-76
2022/01/05 07:21:35;;;;;;;11.47;2.87;;;;;;;;;;5115951;27;20292;-75
2022/01/05 07:24:03;;;;;;;7.90;2.47;;;;;;;;;;5128019;27;20232;-76
2022/01/05 07:26:31;;;;;;;10.57;3.20;;;;;;;;;;5123643;27;20204;-76
2022/01/05 07:28:59;;;;;;;11.37;3.57;;;;;;;;;;5124814;27;20207;-76
2022/01/05 07:31:27;;;;;;;9.40;3.17;;;;;;;;;;5131641;27;20228;-75
2022/01/05 07:33:54;;;;;;;8.67;3.00;;;;;;;;;;5123670;27;20307;-76
2022/01/05 07:36:21;;;;;;;10.83;3.23;;;;;;;;;;5115005;27;20251;-76
2022/01/05 07:38:49;;;;;;;13.73;2.93;;;;;;;;;;5117378;27;20635;-76
2022/01/05 07:41:16;;;;;;;7.93;3.07;;;;;;;;;;5124982;27;20280;-76
2022/01/05 07:43:43;;;;;;;10.63;3.43;;;;;;;;;;5115066;27;20556;-76
2022/01/05 07:46:10;;;;;;;11.00;3.60;;;;;;;;;;5118062;27;20235;-76
2022/01/05 07:48:39;;;;;;;6.37;2.90;;;;;;;;;;5113939;27;20287;-76
2022/01/05 07:51:06;;;;;;;10.43;2.70;;;;;;;;;;5111809;27;20298;-76
2022/01/05 07:53:34;;;;;;;12.97;2.87;;;;;;;;;;5110252;28;20212;-76
2022/01/05 07:56:01;;;;;;;7.33;2.20;;;;;;;;;;5111175;28;20305;-76
2022/01/05 07:58:29;;;;;;;8.23;2.40;;;;;;;;;;5110485;28;20288;-75
2022/01/05 08:00:56;;;;;;;11.90;3.97;;;;;;;;;;5110909;28;20775;-76
2022/01/05 08:03:25;;;;;;;14.17;4.97;;;;;;;;;;5111288;28;20190;-76
2022/01/05 08:05:54;;;;;;;18.73;6.53;;;;;;;;;;5111318;28;20550;-76
2022/01/05 08:08:21;;;;;;;17.13;9.30;;;;;;;;;;5133245;27;20600;-76
2022/01/05 08:10:48;;;;;;;18.83;11.17;;;;;;;;;;5112678;27;20209;-75
2022/01/05 08:13:15;;;;;;;13.50;8.37;;;;;;;;;;5122096;27;20695;-76
2022/01/05 08:15:42;;;;;;;16.30;7.90;;;;;;;;;;5126956;27;20208;-76
2022/01/05 08:18:10;;;;;;;17.80;11.40;;;;;;;;;;5110992;28;20608;-76
2022/01/05 08:20:37;;;;;;;19.23;11.63;;;;;;;;;;5118450;28;20193;-75
2022/01/05 08:23:05;;;;;;;20.20;12.47;;;;;;;;;;5130094;27;20285;-76
2022/01/05 08:25:32;;;;;;;18.93;13.27;;;;;;;;;;5124736;27;20217;-76
2022/01/05 08:28:00;;;;;;;17.93;8.70;;;;;;;;;;5113803;28;20287;-76
2022/01/05 08:30:32;;;;;;;17.83;9.47;;;;;;;;;;5121545;27;20204;-75
2022/01/05 08:33:00;;;;;;;9.33;2.63;;;;;;;;;;5111367;27;20202;-76
2022/01/05 08:35:27;;;;;;;7.97;2.47;;;;;;;;;;5117717;28;20683;-76
2022/01/05 08:37:54;;;;;;;7.17;2.10;;;;;;;;;;5115919;27;20196;-76
2022/01/05 08:40:23;;;;;;;8.80;1.90;;;;;;;;;;5120366;27;20621;-76
2022/01/05 08:42:51;;;;;;;8.43;2.03;;;;;;;;;;5119776;27;20275;-75
2022/01/05 08:45:19;;;;;;;8.73;1.73;;;;;;;;;;5120537;27;20293;-75
2022/01/05 08:47:48;;;;;;;10.37;1.43;;;;;;;;;;5118280;28;20227;-76
2022/01/05 08:50:15;;;;;;;7.40;1.70;;;;;;;;;;5120931;28;20201;-76
2022/01/05 08:52:42;;;;;;;5.60;1.47;;;;;;;;;;5117942;28;20284;-76
2022/01/05 08:55:10;;;;;;;5.00;1.67;;;;;;;;;;5119775;27;20336;-77
2022/01/05 08:57:40;;;;;;;7.73;1.57;;;;;;;;;;5120025;27;20393;-77
2022/01/05 09:00:08;;;;;;;9.50;1.33;;;;;;;;;;5116871;28;20232;-76
2022/01/05 09:02:35;;;;;;;3.63;1.00;;;;;;;;;;5122970;28;20211;-76
2022/01/05 09:05:03;;;;;;;8.27;1.50;;;;;;;;;;5124694;27;20292;-76
2022/01/05 09:07:30;;;;;;;4.63;1.30;;;;;;;;;;5122756;27;20251;-77
2022/01/05 09:09:57;;;;;;;5.13;1.40;;;;;;;;;;5115420;27;20242;-76
2022/01/05 09:12:24;;;;;;;4.57;1.30;;;;;;;;;;5120934;28;20286;-77
2022/01/05 09:14:53;;;;;;;7.97;1.00;;;;;;;;;;5122853;27;20762;-76
2022/01/05 09:17:20;;;;;;;5.33;0.97;;;;;;;;;;5120151;27;20287;-76
2022/01/05 09:19:47;;;;;;;6.53;1.20;;;;;;;;;;5119683;28;20225;-76
2022/01/05 09:22:14;;;;;;;4.67;1.23;;;;;;;;;;5126723;27;20704;-76
2022/01/05 09:24:42;;;;;;;3.40;1.00;;;;;;;;;;5132589;27;20298;-76
2022/01/05 09:27:09;;;;;;;5.83;1.27;;;;;;;;;;5122560;27;20223;-76
2022/01/05 09:29:37;;;;;;;8.47;1.50;;;;;;;;;;5132251;27;20331;-77
2022/01/05 09:32:08;;;;;;;5.77;1.50;;;;;;;;;;5127217;27;20204;-77
2022/01/05 09:34:36;;;;;;;7.23;1.50;;;;;;;;;;5123446;27;20230;-76
2022/01/05 09:37:09;;;;;;;6.10;1.30;;;;;;;;;;5125516;27;20289;-76
2022/01/05 09:42:22;;;;;;;6.97;1.67;;;;;;;;;;5123899;27;20672;-75
2022/01/05 09:44:50;;;;;;;7.83;2.40;;;;;;;;;;5113062;28;20208;-76
2022/01/05 09:47:33;;;;;;;8.10;3.17;;;;;;;;;;5114420;28;20219;-76
2022/01/05 09:50:03;;;;;;;10.30;4.33;;;;;;;;;;5113416;28;20292;-80
2022/01/05 09:52:32;;;;;;;10.87;5.10;;;;;;;;;;5119764;27;20543;-76
2022/01/05 09:55:00;;;;;;;7.00;3.17;;;;;;;;;;5127941;27;20307;-76
2022/01/05 09:57:27;;;;;;;8.27;2.07;;;;;;;;;;5120365;27;20220;-76
2022/01/05 09:59:56;;;;;;;6.33;2.00;;;;;;;;;;5123186;27;20207;-76
2022/01/05 10:02:24;;;;;;;5.20;1.90;;;;;;;;;;5121261;27;20204;-76
2022/01/05 10:04:52;;;;;;;7.20;2.17;;;;;;;;;;5125337;27;20291;-76
2022/01/05 10:07:19;;;;;;;6.70;1.83;;;;;;;;;;5117710;27;20287;-76
2022/01/05 10:09:49;;;;;;;9.07;2.20;;;;;;;;;;5119883;27;20300;-76
2022/01/05 10:12:16;;;;;;;5.87;2.17;;;;;;;;;;5122251;27;20233;-76
2022/01/05 10:14:44;;;;;;;7.27;2.57;;;;;;;;;;5118610;27;20312;-76
2022/01/05 10:17:13;;;;;;;9.10;3.80;;;;;;;;;;5123036;27;20275;-75
2022/01/05 10:19:42;;;;;;;13.57;4.67;;;;;;;;;;5120497;27;20205;-75
2022/01/05 10:22:24;;;;;;;7.30;3.30;;;;;;;;;;5116983;27;20201;-75
2022/01/05 10:24:53;;;;;;;8.57;2.53;;;;;;;;;;5110485;28;20737;-75
2022/01/05 10:27:22;;;;;;;5.07;2.30;;;;;;;;;;5111333;28;20633;-75
2022/01/05 10:29:53;;;;;;;8.00;2.27;;;;;;;;;;5116437;27;20280;-75
2022/01/05 10:32:21;;;;;;;5.90;2.97;;;;;;;;;;5119736;27;20276;-75
2022/01/05 10:35:01;;;;;;;5.40;2.20;;;;;;;;;;5114475;27;20228;-75
2022/01/05 10:37:28;;;;;;;5.50;2.53;;;;;;;;;;5132666;27;20284;-76
2022/01/05 10:40:05;;;;;;;6.80;2.03;;;;;;;;;;5131696;27;20205;-75
2022/01/05 10:42:33;;;;;;;5.63;2.13;;;;;;;;;;5126514;27;20190;-75
2022/01/05 10:45:01;;;;;;;8.80;2.50;;;;;;;;;;5114701;27;20279;-74
2022/01/05 10:47:29;;;;;;;6.67;2.17;;;;;;;;;;5123261;27;20207;-75
2022/01/05 10:49:56;;;;;;;8.93;2.30;;;;;;;;;;5120118;27;20201;-75
2022/01/05 10:52:26;;;;;;;8.87;2.47;;;;;;;;;;5122748;27;20303;-76
2022/01/05 10:54:53;;;;;;;4.77;1.70;;;;;;;;;;5110524;28;20239;-76
2022/01/05 10:57:21;;;;;;;6.97;2.00;;;;;;;;;;5112368;28;20305;-76
2022/01/05 10:59:49;;;;;;;7.47;2.17;;;;;;;;;;5111434;28;20741;-75
2022/01/05 11:02:26;;;;;;;6.30;2.07;;;;;;;;;;5111489;28;20200;-76
2022/01/05 11:04:54;;;;;;;7.30;2.10;;;;;;;;;;5122528;27;20284;-76
2022/01/05 11:07:22;;;;;;;8.30;2.30;;;;;;;;;;5125871;27;20225;-76
2022/01/05 11:09:55;;;;;;;6.47;2.10;;;;;;;;;;5126021;27;20243;-76
2022/01/05 11:12:22;;;;;;;4.70;1.97;;;;;;;;;;5120190;27;20598;-76
2022/01/05 11:14:49;;;;;;;6.23;2.23;;;;;;;;;;5114761;27;20313;-78
2022/01/05 11:17:18;;;;;;;5.90;2.23;;;;;;;;;;5125182;27;20226;-75
2022/01/05 11:19:45;;;;;;;5.63;2.00;;;;;;;;;;5117847;27;20579;-76
2022/01/05 11:22:14;;;;;;;6.80;2.07;;;;;;;;;;5111500;27;20208;-76
2022/01/05 11:24:43;;;;;;;8.77;1.83;;;;;;;;;;5111857;28;20284;-77
2022/01/05 11:27:14;;;;;;;9.23;2.80;;;;;;;;;;5124305;27;20237;-78
2022/01/05 11:29:42;;;;;;;9.07;2.43;;;;;;;;;;5117065;27;20653;-77
2022/01/05 11:32:10;;;;;;;4.67;2.53;;;;;;;;;;5131114;27;20288;-77
2022/01/05 11:34:38;;;;;;;7.60;2.30;;;;;;;;;;5119915;27;20252;-77
2022/01/05 11:37:07;;;;;;;7.43;2.13;;;;;;;;;;5122166;27;20230;-77
2022/01/05 11:39:35;;;;;;;7.00;1.93;;;;;;;;;;5119223;27;20201;-76
2022/01/05 11:42:04;;;;;;;6.43;1.83;;;;;;;;;;5116447;27;20212;-77
2022/01/05 11:44:44;;;;;;;6.63;2.33;;;;;;;;;;5126593;27;20280;-78
2022/01/05 11:47:18;;;;;;;8.27;2.37;;;;;;;;;;5130238;27;20281;-76
2022/01/05 11:49:46;;;;;;;6.07;2.20;;;;;;;;;;5118046;27;20831;-78
2022/01/05 11:52:13;;;;;;;5.87;2.10;;;;;;;;;;5111886;28;20285;-76
2022/01/05 11:54:41;;;;;;;5.97;1.70;;;;;;;;;;5114786;27;20717;-77
2022/01/05 11:57:09;;;;;;;8.87;2.27;;;;;;;;;;5111467;28;20213;-77
2022/01/05 11:59:38;;;;;;;5.13;1.87;;;;;;;;;;5114996;27;20244;-76
2022/01/05 12:02:07;;;;;;;6.70;2.30;;;;;;;;;;5114683;27;20256;-77
2022/01/05 12:04:56;;;;;;;6.70;1.97;;;;;;;;;;5118553;27;20201;-77
2022/01/05 12:07:35;;;;;;;6.13;1.60;;;;;;;;;;5117042;27;20287;-76
2022/01/05 12:10:10;;;;;;;6.33;1.70;;;;;;;;;;5116907;27;20278;-76
2022/01/05 12:12:38;;;;;;;6.47;1.73;;;;;;;;;;5115217;27;20210;-77
2022/01/05 12:15:07;;;;;;;6.20;1.90;;;;;;;;;;5111744;27;20231;-76
2022/01/05 12:17:34;;;;;;;5.83;1.80;;;;;;;;;;5126513;28;20284;-76
2022/01/05 12:20:08;;;;;;;5.33;1.50;;;;;;;;;;5112849;27;20201;-77
2022/01/05 12:22:36;;;;;;;7.50;1.70;;;;;;;;;;5119540;28;20389;-76
2022/01/05 12:25:09;;;;;;;5.13;1.97;;;;;;;;;;5126396;27;20538;-77
2022/01/05 12:27:37;;;;;;;8.93;2.70;;;;;;;;;;5116107;27;20606;-76
2022/01/05 12:30:33;;;;;;;8.20;1.80;;;;;;;;;;5121603;28;20290;-77
2022/01/05 12:33:02;;;;;;;5.97;1.47;;;;;;;;;;5121941;28;20860;-77
2022/01/05 12:35:43;;;;;;;5.80;1.57;;;;;;;;;;5122426;28;20664;-77
2022/01/05 12:38:10;;;;;;;4.77;1.00;;;;;;;;;;5115609;27;20325;-76
2022/01/05 12:40:38;;;;;;;3.87;1.33;;;;;;;;;;5117285;28;20291;-76
2022/01/05 12:43:24;;;;;;;2.63;1.13;;;;;;;;;;5117366;28;20206;-76
2022/01/05 12:45:53;;;;;;;5.47;1.50;;;;;;;;;;5117902;27;20278;-76
2022/01/05 12:48:39;;;;;;;6.23;1.30;;;;;;;;;;5116280;28;20692;-76
2022/01/05 12:51:25;;;;;;;5.00;1.10;;;;;;;;;;5120576;28;20196;-76
2022/01/05 12:53:53;;;;;;;5.67;1.30;;;;;;;;;;5118574;28;20269;-76
2022/01/05 12:56:21;;;;;;;5.77;1.80;;;;;;;;;;5121182;27;20228;-76
2022/01/05 12:58:48;;;;;;;6.40;1.60;;;;;;;;;;5124075;27;20295;-76
2022/01/05 13:01:17;;;;;;;3.50;1.03;;;;;;;;;;5121159;27;20233;-77
2022/01/05 13:03:44;;;;;;;6.43;1.37;;;;;;;;;;5113347;28;20289;-76
2022/01/05 13:06:17;;;;;;;7.37;2.03;;;;;;;;;;5112713;28;20272;-76
2022/01/05 13:08:47;;;;;;;6.87;1.87;;;;;;;;;;5112195;28;20201;-76
2022/01/05 13:11:15;;;;;;;4.73;1.57;;;;;;;;;;5112952;28;20216;-76
2022/01/05 13:13:42;;;;;;;4.27;1.53;;;;;;;;;;5124489;27;20193;-76
2022/01/05 13:16:10;;;;;;;4.20;1.50;;;;;;;;;;5122326;27;20243;-76
2022/01/05 13:18:38;;;;;;;7.00;2.03;;;;;;;;;;5120831;27;20603;-76
2022/01/05 13:21:06;;;;;;;7.33;2.37;;;;;;;;;;5122612;27;20194;-76
2022/01/05 13:23:34;;;;;;;9.00;3.10;;;;;;;;;;5118154;27;20208;-76
2022/01/05 13:26:09;;;;;;;9.00;3.43;;;;;;;;;;5124601;27;20276;-76
2022/01/05 13:28:38;;;;;;;3.30;1.63;;;;;;;;;;5123367;27;20204;-76
2022/01/05 13:31:10;;;;;;;4.83;1.60;;;;;;;;;;5119251;27;20299;-76
2022/01/05 13:33:38;;;;;;;3.50;1.30;;;;;;;;;;5125389;27;20205;-76
2022/01/05 13:36:06;;;;;;;3.60;1.83;;;;;;;;;;5122426;27;20320;-76
2022/01/05 13:38:34;;;;;;;5.77;1.20;;;;;;;;;;5122411;27;20287;-76
2022/01/05 13:41:04;;;;;;;4.50;1.73;;;;;;;;;;5120102;27;20293;-76
2022/01/05 13:43:31;;;;;;;7.40;1.53;;;;;;;;;;5122880;27;20196;-76
2022/01/05 13:46:00;;;;;;;5.37;1.60;;;;;;;;;;5125876;27;20982;-76
2022/01/05 13:48:28;;;;;;;4.57;1.67;;;;;;;;;;5121430;27;20682;-76
2022/01/05 13:50:59;;;;;;;3.93;1.73;;;;;;;;;;5124910;27;20201;-75
2022/01/05 13:53:27;;;;;;;8.40;2.73;;;;;;;;;;5112644;28;20194;-75
2022/01/05 13:55:55;;;;;;;9.67;3.07;;;;;;;;;;5112048;28;20328;-77
2022/01/05 13:58:23;;;;;;;8.97;3.43;;;;;;;;;;5112355;28;20723;-75
2022/01/05 14:00:52;;;;;;;7.43;2.43;;;;;;;;;;5111929;28;20252;-75
2022/01/05 14:03:29;;;;;;;5.93;2.80;;;;;;;;;;5112076;28;20676;-75
2022/01/05 14:05:58;;;;;;;6.17;2.10;;;;;;;;;;5111506;28;20198;-75
2022/01/05 14:08:29;;;;;;;5.40;2.30;;;;;;;;;;5122897;27;20199;-75
2022/01/05 14:11:03;;;;;;;6.57;1.87;;;;;;;;;;5118199;27;20228;-75
2022/01/05 14:13:30;;;;;;;7.93;2.10;;;;;;;;;;5112551;28;20282;-75
2022/01/05 14:15:59;;;;;;;6.70;1.80;;;;;;;;;;5112070;28;20218;-75
2022/01/05 14:18:28;;;;;;;6.30;1.70;;;;;;;;;;5112206;28;20201;-75
2022/01/05 14:20:55;;;;;;;7.53;2.00;;;;;;;;;;5110420;28;20705;-75
2022/01/05 14:23:24;;;;;;;6.93;2.00;;;;;;;;;;5111705;28;20275;-75
2022/01/05 14:25:58;;;;;;;6.50;2.00;;;;;;;;;;5112622;28;20288;-75
2022/01/05 14:28:26;;;;;;;7.03;1.90;;;;;;;;;;5118080;27;20289;-75
2022/01/05 14:30:55;;;;;;;5.37;1.70;;;;;;;;;;5119369;27;20300;-75
2022/01/05 14:33:26;;;;;;;4.10;1.70;;;;;;;;;;5111419;28;20230;-75
2022/01/05 14:35:53;;;;;;;4.20;1.53;;;;;;;;;;5110638;28;20300;-75
2022/01/05 14:38:20;;;;;;;5.90;2.40;;;;;;;;;;5111216;28;20225;-76
2022/01/05 14:40:49;;;;;;;7.40;2.20;;;;;;;;;;5110889;27;20284;-76
2022/01/05 14:43:18;;;;;;;6.83;2.30;;;;;;;;;;5115618;27;20298;-77
2022/01/05 14:45:46;;;;;;;6.37;1.50;;;;;;;;;;5121411;27;20667;-77
2022/01/05 14:48:13;;;;;;;4.27;1.50;;;;;;;;;;5130890;27;20276;-76